createdAt,value
2023-01-12T00:00:14.908Z,43.80
2023-01-12T00:01:19.186Z,43.70
2023-01-12T00:02:22.111Z,43.70
2023-01-12T00:03:24.609Z,44.00
2023-01-12T00:04:26.981Z,44.00
2023-01-12T00:05:29.351Z,43.90
2023-01-12T00:06:32.251Z,44.10
2023-01-12T00:07:34.583Z,44.20
2023-01-12T00:08:36.933Z,44.10
2023-01-12T00:09:39.599Z,44.00
2023-01-12T00:10:41.903Z,44.50
2023-01-12T00:11:44.198Z,44.70
2023-01-12T00:12:46.445Z,44.60
2023-01-12T00:13:48.773Z,44.90
2023-01-12T00:14:51.862Z,45.00
2023-01-12T00:16:16.124Z,45.00
2023-01-12T00:17:19.525Z,44.60
2023-01-12T00:18:21.951Z,45.00
2023-01-12T00:19:24.413Z,45.00
2023-01-12T00:20:26.851Z,45.10
2023-01-12T00:21:29.956Z,45.10
2023-01-12T00:22:32.289Z,44.80
2023-01-12T00:23:34.680Z,44.90
2023-01-12T00:24:41.292Z,44.70
2023-01-12T00:25:49.887Z,44.90
2023-01-12T00:26:53.447Z,45.00
2023-01-12T00:27:55.759Z,45.10
2023-01-12T00:28:58.101Z,45.10
2023-01-12T00:30:00.408Z,44.70
2023-01-12T00:31:08.079Z,44.60
2023-01-12T00:32:16.325Z,44.90
2023-01-12T00:33:20.075Z,44.90
2023-01-12T00:34:23.167Z,44.80
2023-01-12T00:35:25.445Z,44.80
2023-01-12T00:36:27.929Z,45.00
2023-01-12T00:37:30.229Z,44.50
2023-01-12T00:38:36.367Z,45.00
2023-01-12T00:39:42.796Z,44.90
2023-01-12T00:40:45.419Z,44.80
2023-01-12T00:42:06.448Z,44.60
2023-01-12T00:43:27.490Z,44.70
2023-01-12T00:44:48.451Z,44.70
2023-01-12T00:45:51.112Z,44.60
2023-01-12T00:46:53.520Z,44.60
2023-01-12T00:47:55.993Z,44.60
2023-01-12T00:48:58.637Z,44.50
2023-01-12T00:50:00.950Z,44.50
2023-01-12T00:51:04.638Z,44.70
2023-01-12T00:52:11.394Z,45.20
2023-01-12T00:53:15.595Z,44.40
2023-01-12T00:54:38.688Z,44.40
2023-01-12T00:55:41.027Z,44.70
2023-01-12T00:56:43.330Z,44.70
2023-01-12T01:04:26.622Z,44.20
2023-01-12T01:05:30.330Z,44.50
2023-01-12T01:06:32.615Z,44.50
2023-01-12T01:07:34.917Z,44.30
2023-01-12T01:08:37.573Z,44.40
2023-01-12T01:09:39.914Z,44.40
2023-01-12T01:10:42.273Z,45.10
2023-01-12T01:11:44.683Z,44.30
2023-01-12T01:12:47.029Z,44.20
2023-01-12T01:13:49.925Z,44.30
2023-01-12T01:14:53.450Z,44.40
2023-01-12T01:15:58.686Z,44.30
2023-01-12T01:17:01.015Z,44.50
2023-01-12T01:18:03.515Z,44.60
2023-01-12T01:19:05.912Z,44.20
2023-01-12T01:20:08.965Z,44.20
2023-01-12T01:21:12.837Z,44.40
2023-01-12T01:22:15.162Z,44.40
2023-01-12T01:23:17.536Z,44.60
2023-01-12T01:24:19.873Z,44.20
2023-01-12T01:25:22.188Z,44.10
2023-01-12T01:26:24.979Z,44.10
2023-01-12T01:27:27.258Z,44.20
2023-01-12T01:28:29.703Z,44.30
2023-01-12T01:29:32.004Z,44.20
2023-01-12T01:30:34.324Z,44.10
2023-01-12T01:31:37.353Z,44.70
2023-01-12T01:32:39.646Z,44.30
2023-01-12T01:33:42.716Z,44.40
2023-01-12T01:34:46.364Z,44.30
2023-01-12T01:35:48.671Z,44.30
2023-01-12T01:36:50.983Z,44.40
2023-01-12T01:37:53.291Z,44.30
2023-01-12T01:38:55.695Z,43.90
2023-01-12T01:39:57.987Z,44.00
2023-01-12T01:41:00.570Z,44.10
2023-01-12T01:42:02.927Z,44.00
2023-01-12T01:43:05.209Z,44.00
2023-01-12T01:44:30.513Z,45.00
2023-01-12T01:59:48.763Z,42.70
2023-01-12T02:00:52.269Z,42.80
2023-01-12T02:01:55.246Z,42.90
2023-01-12T02:02:59.461Z,42.90
2023-01-12T02:04:03.098Z,43.20
2023-01-12T02:05:06.065Z,43.20
2023-01-12T02:06:09.379Z,43.00
2023-01-12T02:07:12.211Z,43.00
2023-01-12T02:08:40.584Z,43.00
2023-01-12T02:09:44.271Z,43.20
2023-01-12T02:10:46.740Z,43.10
2023-01-12T02:12:08.010Z,43.10
2023-01-12T02:13:29.144Z,43.00
2023-01-12T02:14:52.145Z,43.40
2023-01-12T02:16:23.224Z,44.00
2023-01-12T02:17:43.099Z,43.60
2023-01-12T02:19:26.637Z,42.70
2023-01-12T02:20:52.100Z,42.70
2023-01-12T02:22:32.418Z,43.00
2023-01-12T02:23:55.489Z,43.90
2023-01-12T02:25:00.749Z,43.30
2023-01-12T02:26:21.737Z,43.80
2023-01-12T02:27:50.761Z,43.20
2023-01-12T02:29:29.405Z,43.50
2023-01-12T02:31:04.317Z,43.30
2023-01-12T02:32:26.689Z,43.20
2023-01-12T02:33:36.094Z,43.00
2023-01-12T02:35:00.158Z,43.10
2023-01-12T02:36:16.449Z,43.60
2023-01-12T02:37:45.845Z,43.20
2023-01-12T02:39:03.152Z,43.20
2023-01-12T02:40:37.726Z,43.20
2023-01-12T02:42:08.689Z,43.10
2023-01-12T02:43:22.336Z,43.90
2023-01-12T02:44:38.573Z,42.60
2023-01-12T02:46:03.611Z,43.00
2023-01-12T02:47:11.433Z,42.80
2023-01-12T02:48:16.962Z,42.30
2023-01-12T02:49:22.951Z,42.30
2023-01-12T02:50:44.871Z,42.90
2023-01-12T02:51:54.406Z,44.00
2023-01-12T02:53:02.069Z,43.10
2023-01-12T02:54:11.091Z,42.70
2023-01-12T02:55:16.114Z,43.10
2023-01-12T02:56:48.317Z,43.00
2023-01-12T02:57:53.049Z,42.10
2023-01-12T02:58:59.122Z,42.00
2023-01-12T03:00:03.355Z,42.10
2023-01-12T03:01:07.283Z,42.30
2023-01-12T03:02:15.018Z,42.30
2023-01-12T03:03:19.316Z,42.20
2023-01-12T03:04:23.449Z,42.40
2023-01-12T03:05:25.819Z,42.40
2023-01-12T03:07:07.115Z,42.40
2023-01-12T03:08:14.169Z,42.70
2023-01-12T03:09:18.505Z,42.70
2023-01-12T03:10:35.782Z,42.70
2023-01-12T03:11:40.539Z,42.70
2023-01-12T03:12:44.828Z,42.70
2023-01-12T03:13:57.930Z,42.80
2023-01-12T03:15:03.880Z,43.10
2023-01-12T03:16:07.590Z,42.70
2023-01-12T03:17:17.114Z,42.50
2023-01-12T03:18:33.616Z,42.50
2023-01-12T03:19:36.706Z,43.00
2023-01-12T03:20:45.571Z,42.60
2023-01-12T03:21:56.066Z,42.50
2023-01-12T03:23:08.976Z,42.60
2023-01-12T03:24:21.560Z,43.10
2023-01-12T03:25:25.983Z,43.20
2023-01-12T03:26:30.587Z,43.40
2023-01-12T03:27:48.537Z,43.70
2023-01-12T03:28:58.443Z,43.90
2023-01-12T03:30:05.682Z,44.30
2023-01-12T03:31:11.123Z,44.40
2023-01-12T03:32:13.673Z,44.50
2023-01-12T03:33:16.060Z,44.70
2023-01-12T03:34:18.399Z,44.50
2023-01-12T03:35:26.729Z,44.70
2023-01-12T03:36:56.708Z,44.80
2023-01-12T03:38:09.290Z,44.90
2023-01-12T03:39:14.867Z,44.90
2023-01-12T03:40:32.932Z,44.70
2023-01-12T03:41:54.544Z,44.80
2023-01-12T03:42:56.782Z,44.90
2023-01-12T03:44:03.649Z,44.90
2023-01-12T03:45:31.270Z,44.90
2023-01-12T03:46:42.184Z,44.90
2023-01-12T03:47:44.790Z,45.00
2023-01-12T03:48:52.757Z,44.90
2023-01-12T03:50:20.033Z,44.90
2023-01-12T03:51:25.950Z,44.90
2023-01-12T03:52:31.056Z,44.90
2023-01-12T03:53:34.435Z,45.10
2023-01-12T03:54:39.507Z,45.20
2023-01-12T03:55:43.236Z,45.20
2023-01-12T03:56:47.058Z,45.10
2023-01-12T03:57:51.139Z,45.30
2023-01-12T03:58:53.547Z,44.80
2023-01-12T03:59:57.413Z,41.70
2023-01-12T04:00:59.818Z,41.00
2023-01-12T04:02:03.684Z,41.00
2023-01-12T04:03:14.562Z,41.00
2023-01-12T04:04:17.294Z,41.20
2023-01-12T04:05:19.679Z,41.30
2023-01-12T04:06:22.599Z,42.20
2023-01-12T04:07:25.027Z,44.40
2023-01-12T04:08:27.758Z,44.60
2023-01-12T04:09:30.321Z,44.90
2023-01-12T04:10:32.709Z,45.10
2023-01-12T04:11:53.760Z,45.00
2023-01-12T04:12:56.281Z,45.10
2023-01-12T04:13:58.602Z,45.20
2023-01-12T04:15:00.935Z,45.30
2023-01-12T04:16:03.400Z,45.20
2023-01-12T04:17:07.082Z,45.20
2023-01-12T04:18:10.855Z,45.30
2023-01-12T04:19:13.151Z,45.10
2023-01-12T04:20:15.754Z,45.00
2023-01-12T04:21:36.894Z,44.90
2023-01-12T04:22:45.287Z,44.50
2023-01-12T04:23:47.673Z,44.30
2023-01-12T04:24:50.034Z,44.30
2023-01-12T04:25:52.339Z,44.30
2023-01-12T04:26:54.758Z,44.40
2023-01-12T04:28:02.592Z,44.50
2023-01-12T04:29:05.065Z,44.60
2023-01-12T04:30:08.812Z,44.70
2023-01-12T04:31:11.134Z,44.70
2023-01-12T04:32:13.476Z,45.20
2023-01-12T04:33:15.808Z,45.30
2023-01-12T04:34:19.034Z,45.60
2023-01-12T04:35:21.874Z,45.50
2023-01-12T04:36:24.264Z,45.40
2023-01-12T04:37:26.557Z,45.40
2023-01-12T04:38:28.980Z,45.50
2023-01-12T04:39:31.272Z,45.60
2023-01-12T04:40:33.693Z,45.70
2023-01-12T04:41:36.102Z,45.70
2023-01-12T04:42:57.662Z,45.70
2023-01-12T04:43:59.936Z,45.60
2023-01-12T04:45:02.198Z,46.30
2023-01-12T04:46:09.509Z,45.70
2023-01-12T04:47:11.937Z,44.70
2023-01-12T04:48:16.259Z,44.50
2023-01-12T04:49:18.625Z,44.50
2023-01-12T04:50:20.990Z,44.60
2023-01-12T04:51:23.373Z,44.30
2023-01-12T04:52:25.777Z,45.00
2023-01-12T04:53:28.616Z,45.50
2023-01-12T04:54:30.954Z,45.60
2023-01-12T04:55:35.218Z,45.70
2023-01-12T04:56:37.536Z,45.80
2023-01-12T04:57:39.924Z,45.90
2023-01-12T04:58:42.361Z,45.70
2023-01-12T04:59:44.756Z,45.70
2023-01-12T05:00:47.118Z,45.90
2023-01-12T05:01:49.436Z,46.00
2023-01-12T05:02:59.234Z,45.80
2023-01-12T05:04:01.645Z,45.90
2023-01-12T05:05:05.292Z,45.90
2023-01-12T05:06:07.791Z,45.90
2023-01-12T05:07:10.095Z,45.90
2023-01-12T05:08:31.052Z,46.10
2023-01-12T05:09:52.057Z,46.10
2023-01-12T05:10:59.287Z,46.10
2023-01-12T05:12:01.710Z,45.90
2023-01-12T05:13:04.032Z,46.00
2023-01-12T05:14:06.397Z,45.90
2023-01-12T05:15:09.503Z,45.90
2023-01-12T05:16:15.462Z,46.00
2023-01-12T05:17:17.984Z,46.00
2023-01-12T05:18:20.829Z,46.00
2023-01-12T05:19:23.108Z,46.00
2023-01-12T05:20:25.467Z,46.00
2023-01-12T05:21:27.794Z,46.50
2023-01-12T05:22:31.374Z,46.10
2023-01-12T05:23:33.783Z,46.10
2023-01-12T05:24:36.078Z,46.20
2023-01-12T05:25:38.450Z,46.10
2023-01-12T05:26:40.747Z,46.10
2023-01-12T05:27:43.162Z,46.20
2023-01-12T05:28:48.683Z,46.10
2023-01-12T05:29:52.597Z,46.10
2023-01-12T05:30:55.856Z,46.20
2023-01-12T05:31:58.291Z,46.20
2023-01-12T05:33:00.639Z,46.30
2023-01-12T05:34:02.923Z,46.10
2023-01-12T05:35:06.835Z,46.30
2023-01-12T05:36:11.527Z,46.20
2023-01-12T05:37:13.898Z,46.20
2023-01-12T05:38:16.380Z,46.10
2023-01-12T05:39:19.612Z,46.20
2023-01-12T05:40:22.012Z,46.00
2023-01-12T05:41:24.386Z,46.10
2023-01-12T05:42:45.760Z,46.50
2023-01-12T05:43:51.043Z,45.40
2023-01-12T05:44:53.331Z,46.10
2023-01-12T05:45:55.654Z,40.40
2023-01-12T05:46:57.998Z,41.10
2023-01-12T05:48:01.870Z,42.70
2023-01-12T05:49:04.147Z,45.20
2023-01-12T05:50:06.671Z,46.40
2023-01-12T05:51:10.821Z,46.50
2023-01-12T05:52:13.226Z,46.80
2023-01-12T05:53:15.592Z,46.70
2023-01-12T05:54:17.974Z,46.50
2023-01-12T05:55:20.562Z,46.50
2023-01-12T05:56:27.284Z,46.50
2023-01-12T05:57:30.631Z,46.50
2023-01-12T05:58:33.066Z,46.30
2023-01-12T05:59:35.450Z,46.40
2023-01-12T06:00:37.753Z,46.50
2023-01-12T06:01:41.060Z,46.50
2023-01-12T06:02:43.355Z,46.50
2023-01-12T06:03:52.759Z,46.40
2023-01-12T06:04:55.152Z,46.80
2023-01-12T06:05:58.447Z,46.20
2023-01-12T06:07:00.794Z,46.40
2023-01-12T06:08:03.153Z,46.10
2023-01-12T06:09:05.574Z,46.10
2023-01-12T06:10:08.558Z,46.10
2023-01-12T06:11:30.840Z,46.10
2023-01-12T06:12:51.867Z,46.20
2023-01-12T06:13:57.115Z,46.00
2023-01-12T06:14:59.530Z,46.10
2023-01-12T06:16:05.387Z,46.10
2023-01-12T06:17:07.759Z,46.00
2023-01-12T06:18:10.361Z,46.10
2023-01-12T06:19:13.274Z,43.40
2023-01-12T06:20:17.143Z,40.60
2023-01-12T06:21:19.686Z,40.70
2023-01-12T06:22:22.017Z,42.30
2023-01-12T06:23:35.139Z,44.50
2023-01-12T06:24:38.041Z,46.10
2023-01-12T06:25:40.418Z,46.60
2023-01-12T06:26:44.989Z,46.60
2023-01-12T06:27:47.281Z,46.60
2023-01-12T06:28:49.826Z,46.60
2023-01-12T06:29:52.128Z,46.60
2023-01-12T06:31:03.259Z,46.60
2023-01-12T06:32:05.601Z,46.60
2023-01-12T06:33:07.961Z,46.30
2023-01-12T06:34:10.242Z,46.40
2023-01-12T06:35:18.988Z,46.40
2023-01-12T06:36:22.009Z,46.40
2023-01-12T06:37:25.198Z,46.40
2023-01-12T06:38:29.797Z,46.30
2023-01-12T06:39:32.129Z,46.20
2023-01-12T06:40:34.483Z,46.70
2023-01-12T06:41:55.665Z,46.30
2023-01-12T06:42:58.147Z,46.20
2023-01-12T06:44:00.558Z,46.10
2023-01-12T06:45:03.897Z,46.40
2023-01-12T06:46:06.590Z,46.30
2023-01-12T06:47:08.945Z,46.40
2023-01-12T06:48:11.677Z,46.30
2023-01-12T06:49:16.402Z,46.30
2023-01-12T06:50:18.857Z,46.30
2023-01-12T06:51:21.159Z,46.30
2023-01-12T06:52:25.698Z,46.60
2023-01-12T06:53:28.000Z,46.30
2023-01-12T06:54:30.945Z,45.90
2023-01-12T06:55:33.527Z,45.30
2023-01-12T06:56:35.819Z,45.60
2023-01-12T06:57:38.119Z,43.80
2023-01-12T06:58:43.298Z,42.40
2023-01-12T06:59:45.788Z,42.30
2023-01-12T07:00:48.066Z,42.30
2023-01-12T07:01:50.664Z,43.00
2023-01-12T07:02:53.157Z,44.40
2023-01-12T07:03:55.437Z,45.00
2023-01-12T07:04:57.725Z,44.90
2023-01-12T07:06:00.559Z,45.20
2023-01-12T07:07:02.878Z,45.40
2023-01-12T07:08:05.346Z,45.20
2023-01-12T07:09:07.741Z,45.20
2023-01-12T07:10:13.698Z,45.10
2023-01-12T07:11:16.844Z,45.10
2023-01-12T07:12:19.159Z,45.10
2023-01-12T07:13:21.972Z,45.60
2023-01-12T07:14:24.542Z,45.00
2023-01-12T07:15:26.865Z,45.00
2023-01-12T07:16:29.527Z,45.10
2023-01-12T07:17:32.196Z,45.00
2023-01-12T07:18:34.635Z,45.00
2023-01-12T07:19:56.110Z,45.00
2023-01-12T07:20:58.956Z,45.00
2023-01-12T07:22:01.460Z,45.10
2023-01-12T07:23:03.896Z,45.10
2023-01-12T07:24:06.718Z,45.00
2023-01-12T07:25:09.568Z,45.10
2023-01-12T07:26:12.082Z,45.10
2023-01-12T07:27:14.745Z,45.10
2023-01-12T07:28:17.471Z,45.10
2023-01-12T07:29:20.080Z,45.20
2023-01-12T07:30:24.014Z,45.10
2023-01-12T07:31:26.493Z,45.20
2023-01-12T07:32:29.755Z,45.20
2023-01-12T07:33:34.346Z,45.20
2023-01-12T07:34:36.711Z,45.50
2023-01-12T07:35:40.032Z,45.40
2023-01-12T07:36:42.685Z,45.90
2023-01-12T07:37:54.000Z,45.40
2023-01-12T07:38:56.187Z,45.90
2023-01-12T07:39:59.179Z,46.10
2023-01-12T07:41:02.367Z,46.30
2023-01-12T07:42:23.463Z,46.20
2023-01-12T07:43:26.770Z,46.30
2023-01-12T07:44:29.132Z,46.20
2023-01-12T07:45:31.615Z,46.20
2023-01-12T07:46:35.044Z,46.40
2023-01-12T07:47:37.420Z,45.60
2023-01-12T07:48:39.671Z,45.60
2023-01-12T07:49:41.992Z,45.90
2023-01-12T07:50:44.449Z,45.70
2023-01-12T07:51:46.774Z,45.90
2023-01-12T07:52:49.231Z,46.20
2023-01-12T07:53:51.567Z,46.20
2023-01-12T07:54:53.835Z,45.80
2023-01-12T07:55:59.190Z,46.00
2023-01-12T07:57:01.853Z,44.30
2023-01-12T07:58:04.241Z,44.40
2023-01-12T07:59:07.012Z,43.30
2023-01-12T08:00:10.115Z,42.30
2023-01-12T08:01:22.368Z,44.00
2023-01-12T08:02:24.887Z,44.90
2023-01-12T08:03:27.923Z,45.20
2023-01-12T08:04:30.248Z,45.50
2023-01-12T08:05:33.132Z,45.60
2023-01-12T08:06:36.145Z,46.00
2023-01-12T08:07:38.446Z,46.10
2023-01-12T08:08:40.862Z,46.10
2023-01-12T08:09:43.322Z,46.30
2023-01-12T08:10:48.238Z,46.00
2023-01-12T08:11:50.490Z,46.10
2023-01-12T08:12:52.829Z,46.20
2023-01-12T08:13:57.140Z,46.10
2023-01-12T08:15:00.640Z,46.00
2023-01-12T08:16:08.737Z,45.90
2023-01-12T08:17:18.741Z,45.90
2023-01-12T08:18:34.062Z,45.70
2023-01-12T08:19:50.748Z,45.60
2023-01-12T08:20:54.981Z,45.40
2023-01-12T08:22:00.357Z,45.40
2023-01-12T08:23:16.636Z,45.60
2023-01-12T08:24:24.887Z,46.10
2023-01-12T08:25:34.198Z,45.60
2023-01-12T08:26:40.600Z,45.40
2023-01-12T08:27:48.229Z,45.40
2023-01-12T08:28:59.436Z,45.30
2023-01-12T08:30:04.240Z,45.20
2023-01-12T08:31:10.729Z,45.30
2023-01-12T08:32:17.874Z,45.40
2023-01-12T08:33:20.802Z,45.30
2023-01-12T08:34:23.166Z,45.30
2023-01-12T08:35:28.025Z,45.20
2023-01-12T08:36:32.024Z,45.20
2023-01-12T08:37:34.902Z,45.30
2023-01-12T08:38:37.426Z,45.20
2023-01-12T08:39:40.189Z,45.30
2023-01-12T08:41:01.168Z,45.20
2023-01-12T08:42:04.048Z,45.30
2023-01-12T08:43:06.310Z,45.30
2023-01-12T08:44:10.895Z,45.40
2023-01-12T08:45:13.198Z,45.60
2023-01-12T08:46:15.660Z,45.70
2023-01-12T08:47:26.974Z,45.80
2023-01-12T08:48:29.265Z,45.70
2023-01-12T08:49:33.006Z,45.60
2023-01-12T08:50:35.284Z,45.70
2023-01-12T08:51:39.547Z,45.80
2023-01-12T08:52:42.101Z,46.00
2023-01-12T08:53:44.403Z,46.40
2023-01-12T08:54:47.556Z,45.90
2023-01-12T08:55:55.757Z,45.70
2023-01-12T08:56:58.080Z,45.80
2023-01-12T08:58:00.397Z,45.60
2023-01-12T08:59:03.581Z,45.30
2023-01-12T09:00:06.650Z,45.40
2023-01-12T09:01:11.107Z,45.80
2023-01-12T09:02:15.294Z,46.60
2023-01-12T09:03:17.774Z,46.20
2023-01-12T09:04:20.058Z,46.30
2023-01-12T09:05:22.340Z,46.30
2023-01-12T09:06:30.443Z,46.40
2023-01-12T09:07:33.194Z,46.40
2023-01-12T09:08:35.475Z,46.50
2023-01-12T09:09:38.123Z,46.60
2023-01-12T09:10:40.499Z,46.60
2023-01-12T09:11:44.329Z,46.50
2023-01-12T09:12:46.638Z,46.50
2023-01-12T09:13:48.957Z,46.60
2023-01-12T09:14:52.647Z,46.80
2023-01-12T09:16:11.311Z,46.60
2023-01-12T09:17:15.100Z,46.50
2023-01-12T09:18:19.095Z,46.60
2023-01-12T09:19:22.168Z,46.50
2023-01-12T09:20:24.508Z,46.40
2023-01-12T09:21:28.671Z,46.40
2023-01-12T09:22:30.985Z,46.40
2023-01-12T09:23:34.343Z,46.40
2023-01-12T09:24:36.703Z,46.40
2023-01-12T09:25:39.046Z,46.40
2023-01-12T09:26:43.475Z,46.40
2023-01-12T09:27:45.738Z,46.40
2023-01-12T09:28:48.305Z,46.40
2023-01-12T09:29:50.625Z,46.50
2023-01-12T09:30:52.941Z,46.40
2023-01-12T09:31:55.362Z,46.40
2023-01-12T09:32:57.679Z,46.50
2023-01-12T09:34:00.248Z,46.40
2023-01-12T09:35:02.724Z,46.40
2023-01-12T09:36:11.127Z,46.30
2023-01-12T09:37:13.664Z,46.50
2023-01-12T09:38:15.975Z,46.50
2023-01-12T09:39:27.300Z,46.50
2023-01-12T09:40:30.556Z,46.50
2023-01-12T09:41:59.173Z,46.50
2023-01-12T09:43:34.043Z,46.40
2023-01-12T09:45:07.095Z,46.40
2023-01-12T09:46:38.574Z,46.30
2023-01-12T09:47:48.311Z,46.50
2023-01-12T09:48:50.695Z,46.40
2023-01-12T09:50:08.720Z,46.40
2023-01-12T09:51:28.692Z,46.50
2023-01-12T09:52:34.904Z,46.50
2023-01-12T09:53:40.910Z,46.50
2023-01-12T09:54:46.613Z,46.50
2023-01-12T09:56:16.431Z,46.50
2023-01-12T09:57:47.630Z,46.40
2023-01-12T09:59:10.838Z,46.50
2023-01-12T10:00:14.501Z,46.60
2023-01-12T10:01:28.832Z,46.60
2023-01-12T10:02:35.053Z,46.60
2023-01-12T10:03:39.592Z,46.60
2023-01-12T10:04:42.005Z,46.60
2023-01-12T10:05:47.305Z,46.50
2023-01-12T10:06:49.721Z,46.50
2023-01-12T10:07:55.362Z,46.70
2023-01-12T10:09:04.111Z,46.70
2023-01-12T10:10:07.004Z,46.70
2023-01-12T10:11:30.660Z,46.70
2023-01-12T10:12:42.057Z,46.70
2023-01-12T10:14:03.134Z,46.60
2023-01-12T10:15:29.554Z,46.60
2023-01-12T10:16:56.601Z,46.60
2023-01-12T10:18:23.503Z,46.60
2023-01-12T10:19:35.111Z,46.60
2023-01-12T10:20:43.058Z,46.70
2023-01-12T10:21:45.574Z,46.60
2023-01-12T10:22:53.642Z,46.70
2023-01-12T10:23:56.393Z,46.80
2023-01-12T10:24:59.509Z,46.70
2023-01-12T10:26:21.507Z,46.70
2023-01-12T10:27:23.795Z,46.80
2023-01-12T10:28:30.053Z,46.90
2023-01-12T10:29:32.933Z,47.00
2023-01-12T10:30:39.616Z,46.90
2023-01-12T10:31:41.913Z,46.90
2023-01-12T10:32:44.589Z,46.80
2023-01-12T10:34:10.935Z,46.90
2023-01-12T10:35:19.489Z,47.00
2023-01-12T10:36:24.037Z,47.50
2023-01-12T10:37:27.204Z,47.00
2023-01-12T10:38:53.084Z,47.10
2023-01-12T10:39:55.536Z,47.00
2023-01-12T10:41:27.790Z,46.90
2023-01-12T10:42:49.089Z,47.10
2023-01-12T10:44:00.194Z,47.10
2023-01-12T10:45:17.757Z,47.10
2023-01-12T10:46:23.481Z,47.10
2023-01-12T10:47:26.062Z,47.10
2023-01-12T10:48:28.570Z,47.20
2023-01-12T10:49:31.326Z,47.10
2023-01-12T10:50:35.263Z,47.20
2023-01-12T10:51:56.331Z,47.00
2023-01-12T10:53:11.750Z,47.10
2023-01-12T10:54:22.302Z,47.10
2023-01-12T10:55:32.449Z,47.20
2023-01-12T10:56:39.268Z,47.20
2023-01-12T10:57:44.670Z,47.10
2023-01-12T10:59:15.380Z,47.10
2023-01-12T11:00:28.393Z,47.10
2023-01-12T11:01:52.283Z,47.00
2023-01-12T11:02:54.997Z,46.70
2023-01-12T11:04:05.070Z,47.00
2023-01-12T11:05:30.981Z,46.10
2023-01-12T11:06:33.451Z,47.20
2023-01-12T11:07:49.468Z,47.20
2023-01-12T11:08:52.352Z,46.50
2023-01-12T11:09:57.742Z,47.00
2023-01-12T11:11:16.456Z,47.00
2023-01-12T11:12:21.231Z,47.40
2023-01-12T11:13:30.412Z,47.50
2023-01-12T11:14:38.281Z,47.20
2023-01-12T11:16:02.177Z,47.30
2023-01-12T11:17:27.372Z,47.10
2023-01-12T11:18:50.083Z,47.10
2023-01-12T11:19:55.204Z,47.30
2023-01-12T11:21:05.295Z,47.30
2023-01-12T11:22:18.399Z,47.40
2023-01-12T11:23:28.829Z,47.20
2023-01-12T11:24:38.023Z,47.30
2023-01-12T11:25:44.936Z,47.40
2023-01-12T11:26:56.070Z,47.50
2023-01-12T11:28:08.866Z,47.30
2023-01-12T11:29:31.189Z,47.30
2023-01-12T11:30:41.189Z,47.60
2023-01-12T11:31:44.446Z,47.40
2023-01-12T11:32:56.590Z,47.70
2023-01-12T11:34:03.413Z,47.70
2023-01-12T11:35:28.015Z,47.80
2023-01-12T11:36:36.835Z,47.60
2023-01-12T11:37:42.535Z,47.70
2023-01-12T11:38:47.680Z,47.80
2023-01-12T11:40:05.698Z,47.90
2023-01-12T11:41:22.692Z,47.90
2023-01-12T11:42:48.624Z,47.90
2023-01-12T11:44:07.553Z,48.00
2023-01-12T11:45:48.090Z,48.10
2023-01-12T11:46:57.716Z,48.10
2023-01-12T11:48:08.855Z,48.00
2023-01-12T11:49:34.114Z,48.10
2023-01-12T11:50:39.383Z,48.10
2023-01-12T11:51:42.883Z,48.10
2023-01-12T11:52:45.724Z,48.20
2023-01-12T11:53:51.529Z,48.10
2023-01-12T11:54:54.628Z,48.20
2023-01-12T11:56:36.103Z,47.90
2023-01-12T11:58:11.243Z,48.10
2023-01-12T11:59:40.823Z,48.40
2023-01-12T12:01:25.998Z,48.60
2023-01-12T12:02:41.912Z,48.30
2023-01-12T12:03:49.943Z,48.20
2023-01-12T12:05:21.686Z,48.20
2023-01-12T12:06:53.591Z,48.00
2023-01-12T12:08:05.705Z,48.00
2023-01-12T12:09:39.403Z,47.80
2023-01-12T12:10:59.120Z,47.70
2023-01-12T12:12:05.949Z,47.60
2023-01-12T12:13:31.127Z,47.60
2023-01-12T12:14:42.816Z,47.70
2023-01-12T12:15:53.860Z,47.90
2023-01-12T12:17:19.535Z,47.90
2023-01-12T12:18:52.342Z,46.70
2023-01-12T12:20:18.169Z,47.90
2023-01-12T12:21:42.851Z,46.30
2023-01-12T12:23:10.558Z,47.60
2023-01-12T12:24:46.933Z,47.50
2023-01-12T12:26:25.344Z,47.90
2023-01-12T12:27:51.899Z,47.50
2023-01-12T12:29:21.292Z,48.10
2023-01-12T12:30:59.143Z,48.40
2023-01-12T12:32:26.229Z,48.40
2023-01-12T12:33:50.294Z,48.40
2023-01-12T12:35:21.771Z,48.40
2023-01-12T12:36:45.234Z,48.30
2023-01-12T12:38:22.522Z,48.40
2023-01-12T12:39:55.323Z,48.20
2023-01-12T12:41:26.550Z,48.10
2023-01-12T12:43:25.670Z,48.00
2023-01-12T12:45:05.135Z,48.10
2023-01-12T12:46:13.565Z,48.00
2023-01-12T12:47:53.313Z,48.00
2023-01-12T12:49:11.495Z,48.10
2023-01-12T12:50:37.338Z,48.00
2023-01-12T12:51:41.737Z,48.10
2023-01-12T12:52:48.423Z,48.00
2023-01-12T12:53:52.602Z,47.80
2023-01-12T12:54:57.413Z,48.50
2023-01-12T12:56:06.698Z,48.50
2023-01-12T12:57:16.103Z,48.30
2023-01-12T12:58:21.367Z,48.10
2023-01-12T12:59:38.755Z,46.70
2023-01-12T13:00:43.286Z,43.80
2023-01-12T13:01:56.488Z,43.20
2023-01-12T13:02:59.873Z,43.80
2023-01-12T13:04:06.397Z,44.30
2023-01-12T13:05:10.142Z,44.90
2023-01-12T13:06:40.520Z,45.70
2023-01-12T13:07:50.499Z,46.40
2023-01-12T13:08:58.054Z,46.70
2023-01-12T13:10:15.762Z,48.00
2023-01-12T13:11:18.958Z,47.90
2023-01-12T13:12:32.028Z,47.90
2023-01-12T13:13:38.982Z,47.90
2023-01-12T13:14:43.248Z,47.60
2023-01-12T13:15:46.717Z,47.70
2023-01-12T13:16:52.081Z,47.90
2023-01-12T13:17:55.303Z,47.40
2023-01-12T13:18:57.606Z,47.70
2023-01-12T13:20:16.554Z,47.70
2023-01-12T13:21:57.087Z,47.80
2023-01-12T13:22:59.671Z,47.80
2023-01-12T13:24:14.023Z,47.70
2023-01-12T13:25:16.416Z,48.00
2023-01-12T13:26:34.677Z,47.60
2023-01-12T13:27:49.043Z,48.20
2023-01-12T13:29:27.364Z,48.20
2023-01-12T13:30:29.740Z,48.20
2023-01-12T13:31:32.700Z,48.20
2023-01-12T13:32:41.844Z,48.10
2023-01-12T13:33:44.126Z,48.10
2023-01-12T13:34:46.535Z,48.20
2023-01-12T13:35:48.843Z,48.10
2023-01-12T13:37:27.426Z,48.10
2023-01-12T13:38:39.243Z,48.10
2023-01-12T13:40:06.297Z,48.10
2023-01-12T13:41:37.328Z,48.10
2023-01-12T13:42:58.424Z,48.10
2023-01-12T13:44:01.409Z,47.80
2023-01-12T13:45:04.072Z,47.40
2023-01-12T13:46:18.221Z,46.40
2023-01-12T13:47:27.935Z,45.10
2023-01-12T13:48:35.345Z,45.70
2023-01-12T13:49:48.999Z,46.70
2023-01-12T13:51:27.065Z,47.00
2023-01-12T13:52:31.934Z,47.90
2023-01-12T13:53:34.300Z,48.30
2023-01-12T13:54:48.911Z,48.20
2023-01-12T13:56:07.239Z,48.20
2023-01-12T13:57:19.357Z,48.20
2023-01-12T13:58:21.844Z,48.20
2023-01-12T13:59:25.257Z,48.30
2023-01-12T14:00:29.733Z,48.20
2023-01-12T14:01:37.712Z,48.30
2023-01-12T14:02:41.426Z,48.20
2023-01-12T14:04:13.623Z,48.30
2023-01-12T14:05:42.784Z,48.30
2023-01-12T14:07:06.275Z,48.30
2023-01-12T14:08:50.135Z,48.40
2023-01-12T14:10:14.728Z,48.80
2023-01-12T14:11:39.777Z,48.30
2023-01-12T14:12:56.828Z,48.30
2023-01-12T14:14:45.913Z,48.30
2023-01-12T14:16:06.991Z,48.30
2023-01-12T14:17:44.910Z,48.30
2023-01-12T14:18:49.620Z,48.30
2023-01-12T14:19:52.424Z,48.40
2023-01-12T14:20:57.265Z,48.20
2023-01-12T14:22:02.742Z,48.30
2023-01-12T14:23:25.956Z,48.20
2023-01-12T14:24:28.272Z,48.00
2023-01-12T14:25:30.531Z,47.90
2023-01-12T14:26:35.399Z,48.00
2023-01-12T14:27:38.943Z,48.00
2023-01-12T14:28:46.682Z,48.00
2023-01-12T14:29:49.752Z,48.10
2023-01-12T14:30:54.226Z,48.00
2023-01-12T14:31:56.595Z,47.90
2023-01-12T14:32:58.921Z,48.30
2023-01-12T14:34:03.888Z,48.40
2023-01-12T14:35:15.384Z,48.30
2023-01-12T14:36:22.828Z,48.40
2023-01-12T14:37:32.470Z,48.20
2023-01-12T14:38:35.589Z,48.30
2023-01-12T14:39:41.152Z,48.30
2023-01-12T14:40:53.486Z,48.20
2023-01-12T14:42:16.735Z,48.30
2023-01-12T14:43:40.750Z,48.30
2023-01-12T14:45:13.863Z,48.20
2023-01-12T14:46:38.292Z,48.20
2023-01-12T14:47:41.554Z,48.70
2023-01-12T14:49:04.956Z,48.20
2023-01-12T14:50:13.109Z,48.20
2023-01-12T14:51:38.618Z,48.20
2023-01-12T14:52:42.848Z,47.80
2023-01-12T14:53:48.049Z,48.40
2023-01-12T14:54:52.102Z,48.20
2023-01-12T14:55:55.310Z,43.90
2023-01-12T14:57:03.035Z,43.90
2023-01-12T14:58:06.592Z,43.10
2023-01-12T14:59:14.720Z,43.10
2023-01-12T15:00:25.835Z,44.30
2023-01-12T15:01:35.085Z,45.60
2023-01-12T15:02:40.229Z,46.70
2023-01-12T15:03:48.444Z,47.60
2023-01-12T15:04:58.721Z,47.80
2023-01-12T15:06:01.265Z,47.70
2023-01-12T15:07:18.536Z,47.90